CYTS

Timmins Airport

Timmins, , Canada
METAR CYTS 170600Z 29013G19KT 2 1/2SM -SN VV003 M01/M01 A2968 RMK SN8 SLP066
Observed Flight Rules
Oct-17 @ 06:00 UTC (14 minutes ago) Instrument Flight Rules
Wind Visibility Clouds Conditions
290° at 13 knots
 Gusting to 19 knots
2 1/2 miles
  • Vertical visibility at 300' AGL
  • Light Snow
Temperatures Readings
Current -1°C / 30°F
Dewpoint -1°C / 30°F
Humidity 100%
Altimeter 29.68" Hg
Pressure 1006.6 hPa
Elevation 295
METAR CYTS 170600Z 29013G19KT 2 1/2SM -SN VV003 M01/M01 A2968 RMK SN8 SLP066
Observed Flight Rules
Oct-17 @ 06:00 UTC
(14 minutes ago)
LIFR
Wind Visibility
290° at 13 knots
 Gusting to 19 knots
2 1/2 miles
Clouds
  • Vertical visibility at 300' AGL
Conditions
  • Light Snow
Temperature Dewpoint
-1°C / 30°F -1°C / 30°F
Humidity Altimeter Pressure
100% 29.68" Hg 1006.6 hPa